Time;durP1;ratioP1;P1;durP2;ratioP2;P2;SDS_P1;SDS_P2;PMS_P1;PMS_P2;Temp;Humidity;BMP_temperature;BMP_pressure;BME280_temperature;BME280_humidity;BME280_pressure;Samples;Min_cycle;Max_cycle;Signal;HPM_P1;HPM_P2
2022/04/23 00:02:10;;;;;;;2.58;1.50;;;;;;;11.58;46.70;92876.78;4969233;28;20039;-71
2022/04/23 00:04:43;;;;;;;4.25;1.63;;;;;;;11.48;45.37;92857.81;4978644;28;20058;-70
2022/04/23 00:07:09;;;;;;;4.72;2.53;;;;;;;11.49;45.39;92864.69;4972421;28;20033;-69
2022/04/23 00:09:34;;;;;;;9.50;3.13;;;;;;;11.39;45.32;92855.31;4969534;28;20045;-69
2022/04/23 00:12:00;;;;;;;5.63;2.25;;;;;;;11.25;45.70;92848.84;4972572;28;20062;-70
2022/04/23 00:14:26;;;;;;;11.60;2.88;;;;;;;11.31;45.46;92840.25;4958830;28;20756;-69
2022/04/23 00:16:52;;;;;;;5.72;2.33;;;;;;;11.70;45.28;92854.59;4975160;28;20034;-70
2022/04/23 00:19:18;;;;;;;1.77;1.45;;;;;;;11.98;44.42;92873.94;4965053;28;20034;-70
2022/04/23 00:21:44;;;;;;;2.25;1.70;;;;;;;12.02;43.73;92872.16;4976149;28;20030;-70
2022/04/23 00:24:09;;;;;;;3.38;1.35;;;;;;;11.93;43.88;92836.91;4973197;28;20055;-70
2022/04/23 00:26:35;;;;;;;4.72;1.52;;;;;;;12.21;43.94;92858.13;4977717;28;20049;-70
2022/04/23 00:29:00;;;;;;;2.78;2.08;;;;;;;12.20;43.30;92829.16;4962288;28;20593;-72
2022/04/23 00:31:26;;;;;;;4.35;1.40;;;;;;;12.74;42.69;92875.34;4975250;28;20093;-69
2022/04/23 00:33:52;;;;;;;3.85;1.52;;;;;;;13.02;42.66;92874.41;4971435;28;20022;-70
2022/04/23 00:36:18;;;;;;;2.22;1.30;;;;;;;12.87;42.19;92854.66;4965243;28;20054;-69
2022/04/23 00:38:45;;;;;;;4.80;1.80;;;;;;;11.65;44.44;92846.88;4976727;28;20061;-70
2022/04/23 00:41:46;;;;;;;2.17;1.35;;;;;;;11.87;44.67;92870.28;4968723;28;20046;-70
2022/04/23 00:44:00;;;;;;;2.28;1.75;;;;;;;11.02;46.09;92856.56;4973422;28;20038;-70
2022/04/23 00:46:25;;;;;;;2.80;1.60;;;;;;;11.31;45.76;92855.47;4960915;28;20066;-70
2022/04/23 00:48:51;;;;;;;4.32;2.30;;;;;;;11.25;45.99;92878.13;4973928;28;20157;-69
2022/04/23 00:51:16;;;;;;;2.88;1.70;;;;;;;11.50;45.61;92866.22;4983732;28;20895;-69
2022/04/23 00:53:42;;;;;;;4.95;2.47;;;;;;;11.91;44.87;92873.03;4991565;28;20092;-70
2022/04/23 00:56:10;;;;;;;5.93;1.50;;;;;;;11.82;44.53;92864.41;4985448;28;20053;-70
2022/04/23 00:58:36;;;;;;;2.53;1.73;;;;;;;11.93;44.98;92886.78;5002095;28;20683;-69
2022/04/23 01:01:01;;;;;;;4.07;1.95;;;;;;;11.77;44.71;92864.69;4993799;28;20018;-70
2022/04/23 01:03:28;;;;;;;3.22;1.70;;;;;;;11.99;43.96;92880.06;4991490;28;20383;-70
2022/04/23 01:05:55;;;;;;;3.55;1.58;;;;;;;11.54;44.72;92867.16;5004034;28;20041;-69
2022/04/23 01:08:20;;;;;;;4.10;1.50;;;;;;;11.36;45.17;92865.84;4984688;28;20069;-69
2022/04/23 01:10:48;;;;;;;5.32;2.28;;;;;;;11.63;45.06;92875.75;4987904;28;20514;-69
2022/04/23 01:13:14;;;;;;;3.22;2.05;;;;;;;11.51;45.78;92889.13;4986174;28;20045;-70
2022/04/23 01:16:15;;;;;;;3.67;1.48;;;;;;;12.08;44.62;92885.25;4992797;28;20040;-71
2022/04/23 01:18:42;;;;;;;3.08;2.10;;;;;;;12.23;44.02;92876.44;4996841;28;20050;-70
2022/04/23 01:21:10;;;;;;;4.20;1.85;;;;;;;12.07;44.30;92894.34;4986505;28;20033;-70
2022/04/23 01:23:40;;;;;;;3.15;1.60;;;;;;;12.33;43.74;92894.56;4991378;28;20513;-69
2022/04/23 01:26:07;;;;;;;5.65;1.83;;;;;;;11.60;44.63;92871.09;4994346;28;20046;-70
2022/04/23 01:28:35;;;;;;;3.85;2.17;;;;;;;11.85;45.12;92882.38;4995580;28;20535;-70
2022/04/23 01:31:00;;;;;;;4.20;1.70;;;;;;;11.99;44.23;92866.72;4992745;28;20038;-70
2022/04/23 01:33:26;;;;;;;9.20;2.75;;;;;;;11.63;45.03;92870.41;4993576;28;20033;-71
2022/04/23 01:35:51;;;;;;;5.13;2.05;;;;;;;11.86;45.31;92875.94;4988693;28;20026;-69
2022/04/23 01:38:17;;;;;;;3.78;2.22;;;;;;;12.39;45.21;92874.53;4991377;28;20056;-70
2022/04/23 01:40:43;;;;;;;5.65;2.10;;;;;;;12.13;44.27;92871.63;4995579;28;20390;-70
2022/04/23 01:43:09;;;;;;;3.55;1.80;;;;;;;12.48;44.29;92883.13;4996667;28;20283;-70
2022/04/23 01:45:36;;;;;;;6.35;2.35;;;;;;;12.50;43.93;92866.78;4996359;28;20808;-70
2022/04/23 01:48:01;;;;;;;6.30;1.73;;;;;;;11.98;44.14;92868.63;4994028;28;20079;-70
2022/04/23 01:50:27;;;;;;;4.10;1.73;;;;;;;11.59;44.46;92848.22;4995437;28;20038;-70
2022/04/23 01:52:52;;;;;;;3.53;2.00;;;;;;;11.74;44.78;92891.97;4984103;28;20046;-70
2022/04/23 01:55:18;;;;;;;5.10;1.40;;;;;;;11.70;45.21;92883.91;4993949;28;20057;-69
2022/04/23 01:57:50;;;;;;;3.05;1.50;;;;;;;11.92;45.43;92883.34;4992254;28;20112;-70
2022/04/23 02:00:16;;;;;;;2.92;2.53;;;;;;;12.09;44.45;92886.75;4991039;28;20036;-69
2022/04/23 02:02:42;;;;;;;6.25;1.98;;;;;;;12.11;44.70;92897.88;4995242;28;20042;-69
2022/04/23 02:05:09;;;;;;;3.10;1.38;;;;;;;12.16;44.44;92876.28;4987297;28;20294;-71
2022/04/23 02:07:38;;;;;;;5.60;1.65;;;;;;;12.73;44.24;92900.50;4996897;28;20057;-72
2022/04/23 02:10:06;;;;;;;5.28;1.85;;;;;;;13.08;43.92;92900.47;4983146;28;20092;-71
2022/04/23 02:12:31;;;;;;;5.18;1.75;;;;;;;13.04;42.63;92883.63;4991073;28;20117;-71
2022/04/23 02:14:57;;;;;;;3.55;2.28;;;;;;;12.44;42.93;92852.94;4989255;28;20038;-69
2022/04/23 02:17:22;;;;;;;4.22;1.70;;;;;;;13.17;43.13;92897.59;4993794;28;20441;-71
2022/04/23 02:19:48;;;;;;;4.35;2.47;;;;;;;12.79;43.42;92899.09;4990018;28;20092;-71
2022/04/23 02:22:13;;;;;;;4.30;1.70;;;;;;;12.92;42.86;92874.94;4997009;28;20018;-70
2022/04/23 02:24:38;;;;;;;4.28;1.55;;;;;;;13.29;42.84;92894.81;4991788;28;20751;-70
2022/04/23 02:27:04;;;;;;;7.28;1.92;;;;;;;13.38;41.70;92871.31;4978925;28;20279;-71
2022/04/23 02:29:29;;;;;;;4.72;1.90;;;;;;;13.11;42.39;92893.66;4992139;28;20177;-71
2022/04/23 02:31:54;;;;;;;3.75;1.80;;;;;;;13.51;41.85;92893.31;4989813;28;20045;-72
2022/04/23 02:34:21;;;;;;;3.97;1.70;;;;;;;13.18;42.01;92896.47;4985443;28;20081;-71
2022/04/23 02:36:47;;;;;;;8.55;1.90;;;;;;;12.81;42.91;92907.50;4996931;28;20026;-70
2022/04/23 02:39:13;;;;;;;6.43;1.95;;;;;;;12.41;43.22;92894.41;4986359;28;20124;-71
2022/04/23 02:41:39;;;;;;;7.13;2.80;;;;;;;12.00;44.64;92913.59;4994609;28;20034;-71
2022/04/23 02:44:04;;;;;;;4.43;1.50;;;;;;;12.21;44.29;92886.69;4986139;28;20417;-71
2022/04/23 02:46:30;;;;;;;6.43;1.65;;;;;;;11.75;45.58;92901.53;4990665;28;20345;-70
2022/04/23 02:48:57;;;;;;;4.05;1.85;;;;;;;11.23;47.13;92918.38;4986882;28;20029;-69
2022/04/23 02:51:23;;;;;;;3.10;1.65;;;;;;;11.12;47.67;92906.66;4989489;28;20026;-71
2022/04/23 02:53:48;;;;;;;3.90;1.83;;;;;;;11.51;46.79;92926.38;4990522;28;20480;-70
2022/04/23 02:56:16;;;;;;;6.75;2.78;;;;;;;11.06;48.22;92926.63;4989044;28;20060;-70
2022/04/23 02:58:43;;;;;;;2.83;1.80;;;;;;;10.96;48.64;92930.53;4991933;28;20041;-69
2022/04/23 03:01:10;;;;;;;5.10;1.95;;;;;;;11.43;47.79;92913.97;5002778;28;20014;-69
2022/04/23 03:03:40;;;;;;;3.50;2.10;;;;;;;11.73;47.49;92922.41;4989708;28;20030;-70
2022/04/23 03:06:07;;;;;;;5.45;2.22;;;;;;;11.51;47.33;92929.06;4989943;28;20709;-72
2022/04/23 03:08:39;;;;;;;4.82;2.13;;;;;;;11.32;47.58;92916.34;4991206;28;20120;-70
2022/04/23 03:11:06;;;;;;;10.13;2.17;;;;;;;11.55;47.38;92895.31;4990395;28;20168;-70
2022/04/23 03:13:35;;;;;;;3.03;1.88;;;;;;;11.03;48.49;92922.75;4987695;28;20709;-70
2022/04/23 03:16:03;;;;;;;4.45;2.13;;;;;;;11.49;48.07;92932.00;4983272;28;20532;-71
2022/04/23 03:18:30;;;;;;;5.47;2.22;;;;;;;11.97;47.04;92925.72;4991214;28;20050;-69
2022/04/23 03:20:56;;;;;;;3.25;2.10;;;;;;;11.23;47.69;92899.75;4992791;28;20040;-70
2022/04/23 03:23:21;;;;;;;6.78;2.63;;;;;;;10.38;50.34;92915.09;4992514;28;20042;-71
2022/04/23 03:25:47;;;;;;;5.72;2.92;;;;;;;10.41;49.92;92907.25;4993006;28;20038;-70
2022/04/23 03:28:14;;;;;;;4.63;2.42;;;;;;;10.24;50.92;92920.72;4992452;28;20017;-71
2022/04/23 03:30:41;;;;;;;4.57;2.63;;;;;;;11.06;50.15;92938.03;4991614;28;20034;-72
2022/04/23 03:33:06;;;;;;;6.35;2.47;;;;;;;11.42;49.11;92934.50;4983207;28;20856;-71
2022/04/23 03:35:32;;;;;;;3.75;2.17;;;;;;;11.52;48.34;92928.72;4991476;28;20038;-70
2022/04/23 03:37:58;;;;;;;5.25;2.35;;;;;;;11.95;47.67;92930.59;4984279;28;20490;-70
2022/04/23 03:40:24;;;;;;;3.35;2.10;;;;;;;12.11;47.39;92921.84;4990643;28;20409;-70
2022/04/23 03:42:50;;;;;;;7.35;2.38;;;;;;;12.37;46.83;92946.13;4988513;28;20485;-69
2022/04/23 03:45:18;;;;;;;4.63;2.33;;;;;;;12.52;46.73;92953.31;4990833;28;20067;-72
2022/04/23 03:47:46;;;;;;;3.38;2.35;;;;;;;12.63;46.40;92953.59;4983581;28;20044;-72
2022/04/23 03:50:11;;;;;;;5.60;1.63;;;;;;;12.70;45.71;92953.78;5010552;28;20048;-71
2022/04/23 03:52:37;;;;;;;5.05;1.90;;;;;;;12.68;45.74;92935.44;4987931;28;20386;-70
2022/04/23 03:55:04;;;;;;;4.93;1.88;;;;;;;12.79;45.60;92946.34;4984926;28;20119;-70
2022/04/23 03:57:29;;;;;;;2.25;1.58;;;;;;;13.06;45.25;92964.09;4993188;28;20359;-71
2022/04/23 03:59:54;;;;;;;3.22;1.52;;;;;;;12.99;45.22;92952.50;4982826;28;20410;-69
2022/04/23 04:02:20;;;;;;;6.43;2.20;;;;;;;13.00;45.10;92962.06;4994772;28;20033;-71
2022/04/23 04:04:46;;;;;;;5.35;1.63;;;;;;;13.11;44.87;92953.16;4979765;28;20507;-70
2022/04/23 04:07:21;;;;;;;5.13;1.98;;;;;;;13.20;44.56;92955.66;4992347;28;20450;-71
2022/04/23 04:09:48;;;;;;;3.95;1.60;;;;;;;13.27;44.47;92961.91;4986269;28;20489;-70
2022/04/23 04:12:14;;;;;;;4.85;2.25;;;;;;;13.21;44.54;92957.16;4987491;28;20069;-72
2022/04/23 04:14:39;;;;;;;2.67;2.40;;;;;;;13.16;44.78;92960.13;4993979;28;20525;-70
2022/04/23 04:17:07;;;;;;;3.67;1.50;;;;;;;13.02;45.02;92954.47;4986553;28;20413;-69
2022/04/23 04:19:34;;;;;;;4.88;2.38;;;;;;;13.13;45.21;92955.47;4984420;28;20041;-71
2022/04/23 04:22:02;;;;;;;3.85;2.17;;;;;;;13.26;45.00;92959.56;4996485;28;20021;-71
2022/04/23 04:24:28;;;;;;;3.70;1.70;;;;;;;13.28;44.46;92957.34;4994422;28;20305;-71
2022/04/23 04:26:53;;;;;;;4.65;2.15;;;;;;;12.78;45.26;92966.91;4987220;28;20041;-69
2022/04/23 04:29:19;;;;;;;5.00;2.58;;;;;;;12.71;45.83;92969.41;4990233;28;20076;-71
2022/04/23 04:31:49;;;;;;;2.28;2.08;;;;;;;13.00;45.79;92960.19;4993195;28;20565;-70
2022/04/23 04:34:29;;;;;;;2.60;1.67;;;;;;;13.10;45.09;92980.22;4981358;28;20370;-71
2022/04/23 04:37:06;;;;;;;5.85;1.73;;;;;;;13.20;45.42;92982.34;4990221;28;20104;-70
2022/04/23 04:39:32;;;;;;;2.72;1.92;;;;;;;13.11;45.87;92963.06;4983032;28;20460;-71
2022/04/23 04:41:58;;;;;;;3.83;1.70;;;;;;;13.06;46.15;92982.00;4988037;28;20553;-71
2022/04/23 04:44:23;;;;;;;4.10;2.22;;;;;;;13.29;46.44;92991.69;4983076;28;20951;-71
2022/04/23 04:46:49;;;;;;;5.80;2.00;;;;;;;13.32;45.88;92974.19;4989903;28;20064;-71
2022/04/23 04:49:22;;;;;;;9.07;2.75;;;;;;;12.31;47.23;92968.81;4992741;28;20079;-71
2022/04/23 04:51:51;;;;;;;6.05;4.35;;;;;;;12.85;47.49;93001.78;4992086;28;20025;-71
2022/04/23 04:54:21;;;;;;;4.90;2.65;;;;;;;13.03;46.33;92998.72;4992779;28;20037;-70
2022/04/23 04:56:51;;;;;;;5.57;3.05;;;;;;;11.49;48.57;92992.50;4984809;28;20405;-70
2022/04/23 04:59:17;;;;;;;4.80;2.70;;;;;;;11.81;48.81;92983.53;4991476;28;20034;-69
2022/04/23 05:01:42;;;;;;;3.05;2.10;;;;;;;12.47;47.97;93010.34;4980599;28;20734;-70
2022/04/23 05:04:08;;;;;;;3.70;2.58;;;;;;;12.49;47.85;93002.00;4987039;28;20476;-72
2022/04/23 05:06:34;;;;;;;4.72;2.70;;;;;;;11.70;48.59;93008.31;4987110;28;20474;-71
2022/04/23 05:08:59;;;;;;;6.10;2.75;;;;;;;11.49;49.32;93011.91;4990508;28;20137;-70
2022/04/23 05:11:25;;;;;;;7.40;2.67;;;;;;;11.71;48.44;93026.63;4994276;28;20104;-70
2022/04/23 05:13:52;;;;;;;2.92;2.47;;;;;;;11.50;49.27;93026.75;4987040;28;20467;-69
2022/04/23 05:16:17;;;;;;;4.57;2.95;;;;;;;11.86;49.59;93043.78;4996616;28;20044;-70
2022/04/23 05:18:44;;;;;;;7.32;3.72;;;;;;;12.38;48.51;93051.63;4993784;28;20250;-70
2022/04/23 05:21:10;;;;;;;8.32;3.53;;;;;;;12.68;47.76;93063.47;4989120;28;20050;-72
2022/04/23 05:23:36;;;;;;;4.55;2.97;;;;;;;12.71;47.19;93046.03;4986406;28;20100;-72
2022/04/23 05:26:03;;;;;;;8.02;3.05;;;;;;;12.92;46.99;93080.44;4991039;28;20577;-72
2022/04/23 05:28:35;;;;;;;4.07;2.50;;;;;;;13.05;46.09;93071.25;4990943;28;20405;-70
2022/04/23 05:31:01;;;;;;;5.97;3.40;;;;;;;13.18;46.42;93080.69;4990947;28;20041;-70
2022/04/23 05:33:26;;;;;;;4.57;3.13;;;;;;;13.29;46.45;93071.03;4989010;28;20025;-70
2022/04/23 05:35:51;;;;;;;4.07;2.78;;;;;;;13.52;46.01;93079.94;4990641;28;20037;-70
2022/04/23 05:38:21;;;;;;;11.40;3.45;;;;;;;13.45;45.60;93041.59;4993391;28;20037;-69
2022/04/23 05:40:48;;;;;;;5.82;2.65;;;;;;;13.72;45.94;93070.09;4990659;28;20034;-70
2022/04/23 05:43:13;;;;;;;6.28;3.33;;;;;;;13.61;45.29;93067.19;4993071;28;20567;-71
2022/04/23 05:45:39;;;;;;;8.88;3.67;;;;;;;13.73;45.51;93058.28;4992048;28;20113;-70
2022/04/23 05:48:04;;;;;;;6.35;2.92;;;;;;;13.78;45.38;93043.88;4985506;28;20049;-70
2022/04/23 05:50:30;;;;;;;7.15;2.90;;;;;;;13.47;45.36;93061.50;5009781;28;20438;-71
2022/04/23 05:52:56;;;;;;;6.93;3.83;;;;;;;13.61;46.29;93061.84;4993011;28;20037;-71
2022/04/23 05:55:21;;;;;;;4.25;3.08;;;;;;;13.86;45.33;93061.59;4992658;28;20064;-71
2022/04/23 05:57:49;;;;;;;6.35;2.30;;;;;;;13.29;45.09;93055.78;4994766;28;20105;-69
2022/04/23 06:00:15;;;;;;;10.57;2.63;;;;;;;13.52;45.23;93042.53;4994019;28;20077;-70
2022/04/23 06:02:40;;;;;;;6.07;2.90;;;;;;;13.04;45.93;93045.66;4995361;28;20205;-70
2022/04/23 06:05:08;;;;;;;6.07;2.30;;;;;;;13.06;45.92;93056.75;4987461;28;20033;-70
2022/04/23 06:07:33;;;;;;;6.60;2.63;;;;;;;12.39;47.06;93063.84;4995356;28;20384;-71
2022/04/23 06:09:59;;;;;;;7.80;3.35;;;;;;;12.12;47.28;93072.66;5007919;28;20026;-70
2022/04/23 06:12:25;;;;;;;7.25;2.53;;;;;;;11.85;48.36;93064.31;4984955;28;20135;-71
2022/04/23 06:14:50;;;;;;;3.60;2.65;;;;;;;12.20;47.56;93058.41;4990130;28;20033;-71
2022/04/23 06:17:22;;;;;;;3.33;2.75;;;;;;;12.25;47.85;93050.16;4988515;28;20069;-71
2022/04/23 06:19:47;;;;;;;7.07;3.05;;;;;;;12.44;47.41;93063.59;4992347;28;20041;-69
2022/04/23 06:22:12;;;;;;;7.22;3.05;;;;;;;12.33;47.61;93079.31;4997467;28;20057;-70
2022/04/23 06:24:38;;;;;;;6.07;2.92;;;;;;;12.07;48.20;93072.91;4988881;28;20061;-70
2022/04/23 06:27:03;;;;;;;6.35;3.90;;;;;;;12.03;48.80;93075.44;4991253;28;20775;-71
2022/04/23 06:29:29;;;;;;;6.05;3.50;;;;;;;12.53;47.45;93077.53;4985219;28;20033;-71
2022/04/23 06:31:54;;;;;;;4.10;2.88;;;;;;;12.95;47.17;93074.44;4986688;28;20054;-70
2022/04/23 06:34:20;;;;;;;4.07;2.58;;;;;;;13.13;47.14;93072.94;4988152;28;20650;-69
2022/04/23 06:36:45;;;;;;;6.03;2.92;;;;;;;13.48;47.29;93057.72;4990218;28;20025;-69
2022/04/23 06:39:11;;;;;;;7.15;2.85;;;;;;;13.86;46.69;93072.28;4990137;28;20566;-71
2022/04/23 06:41:36;;;;;;;5.43;2.97;;;;;;;13.99;46.02;93065.66;4991138;28;20041;-69
2022/04/23 06:44:01;;;;;;;5.32;3.38;;;;;;;14.25;45.95;93068.47;4991499;28;20481;-70
2022/04/23 06:46:27;;;;;;;5.60;2.75;;;;;;;14.46;45.52;93068.88;4985871;28;20038;-71
2022/04/23 06:48:52;;;;;;;6.53;3.45;;;;;;;14.55;45.24;93074.81;4994557;28;20026;-71
2022/04/23 06:51:18;;;;;;;4.72;3.28;;;;;;;14.56;46.00;93068.34;4982269;28;20530;-71
2022/04/23 06:53:45;;;;;;;6.65;3.08;;;;;;;14.36;47.15;93074.03;4986480;28;20046;-70
2022/04/23 06:56:12;;;;;;;5.18;2.78;;;;;;;14.41;46.98;93077.19;4979947;28;20044;-70
2022/04/23 06:58:37;;;;;;;3.95;2.78;;;;;;;14.55;47.39;93077.47;4989772;28;20049;-73
2022/04/23 07:01:06;;;;;;;10.00;3.17;;;;;;;14.17;48.41;93053.44;4984252;28;20524;-73
2022/04/23 07:03:31;;;;;;;3.83;2.95;;;;;;;14.73;47.22;93061.72;4981426;28;20029;-70
2022/04/23 07:05:57;;;;;;;13.43;4.05;;;;;;;14.41;48.08;93076.41;4989421;28;20041;-73
2022/04/23 07:08:22;;;;;;;4.13;2.97;;;;;;;14.21;49.20;93073.00;4988202;28;20394;-70
2022/04/23 07:10:48;;;;;;;5.15;2.80;;;;;;;13.91;49.51;93085.38;4989092;28;20136;-70
2022/04/23 07:13:15;;;;;;;4.38;3.22;;;;;;;14.42;49.08;93084.06;4989733;28;20025;-72
2022/04/23 07:15:40;;;;;;;7.53;4.07;;;;;;;14.43;48.78;93084.84;4986356;28;20089;-71
2022/04/23 07:18:09;;;;;;;5.88;3.63;;;;;;;14.24;48.83;93072.28;4987517;28;20129;-71
2022/04/23 07:20:34;;;;;;;7.10;3.63;;;;;;;14.30;49.67;93102.97;4989442;28;20036;-73
2022/04/23 07:25:45;;;;;;;3.75;2.70;;;;;;;14.00;50.07;93110.00;4979963;28;20112;-70
2022/04/23 07:28:10;;;;;;;4.93;3.20;;;;;;;14.02;50.62;93115.78;4984613;28;20370;-71
2022/04/23 07:30:36;;;;;;;7.15;3.08;;;;;;;14.29;49.79;93112.09;4983024;28;20115;-70
2022/04/23 07:33:03;;;;;;;5.75;2.83;;;;;;;14.32;50.34;93116.00;4986965;28;20112;-71
2022/04/23 07:38:13;;;;;;;6.05;2.70;;;;;;;14.12;50.60;93128.59;4988094;28;20084;-70
2022/04/23 07:40:40;;;;;;;4.47;2.70;;;;;;;14.47;50.28;93125.84;4992900;28;20469;-70
2022/04/23 07:43:12;;;;;;;3.17;2.50;;;;;;;14.34;49.31;93103.78;4985320;28;20030;-71
2022/04/23 07:45:38;;;;;;;5.47;2.90;;;;;;;14.78;48.81;93135.59;4983644;28;20022;-70
2022/04/23 07:48:12;;;;;;;19.13;3.53;;;;;;;14.07;50.62;93142.22;4985815;28;20056;-71
2022/04/23 07:50:40;;;;;;;5.07;2.17;;;;;;;13.92;51.63;93122.44;5007877;28;20354;-70
2022/04/23 07:53:09;;;;;;;3.00;2.25;;;;;;;14.37;50.73;93140.56;4983438;28;20452;-71
2022/04/23 07:55:38;;;;;;;5.35;2.22;;;;;;;14.42;51.06;93136.81;4988917;28;20037;-70
2022/04/23 07:58:05;;;;;;;5.28;3.00;;;;;;;14.68;49.48;93142.31;4986665;28;20711;-70
2022/04/23 08:00:34;;;;;;;8.85;2.63;;;;;;;14.88;49.54;93143.06;4991846;28;20097;-70
2022/04/23 08:03:02;;;;;;;2.45;2.20;;;;;;;14.67;51.17;93138.06;4990483;28;20510;-71
2022/04/23 08:05:29;;;;;;;3.85;1.77;;;;;;;14.86;51.04;93153.34;4985318;28;20572;-71
2022/04/23 08:07:54;;;;;;;2.65;1.90;;;;;;;14.85;51.43;93146.44;4993014;28;20053;-70
2022/04/23 08:10:20;;;;;;;3.80;2.50;;;;;;;15.00;51.01;93156.28;4985203;28;20589;-71
2022/04/23 08:12:46;;;;;;;3.03;1.92;;;;;;;14.93;50.92;93156.91;4988475;28;20091;-71
2022/04/23 08:15:12;;;;;;;5.80;2.63;;;;;;;14.73;51.33;93146.59;4990493;28;20037;-71
2022/04/23 08:17:38;;;;;;;3.53;2.42;;;;;;;14.50;51.87;93144.63;4988488;28;20044;-70
2022/04/23 08:20:06;;;;;;;3.70;2.17;;;;;;;14.95;51.56;93156.56;4973498;28;20147;-71
2022/04/23 08:22:32;;;;;;;3.65;1.88;;;;;;;15.02;51.46;93162.81;5002167;28;20042;-70
2022/04/23 08:24:57;;;;;;;5.55;2.15;;;;;;;14.52;51.75;93158.41;4990462;28;20426;-70
2022/04/23 08:27:23;;;;;;;5.30;2.58;;;;;;;14.39;51.90;93169.59;4986550;28;20032;-70
2022/04/23 08:32:34;;;;;;;2.20;1.50;;;;;;;14.17;52.63;93173.78;4984902;28;20680;-72
2022/04/23 08:34:59;;;;;;;2.63;1.20;;;;;;;14.05;52.40;93171.19;4988433;28;20145;-70
2022/04/23 08:37:51;;;;;;;2.45;1.20;;;;;;;14.04;52.43;93164.31;4987567;28;20329;-71
2022/04/23 08:40:29;;;;;;;4.63;1.10;;;;;;;14.07;52.44;93168.97;4986846;28;20198;-70
2022/04/23 08:43:11;;;;;;;4.63;1.17;;;;;;;14.01;52.24;93178.38;4989413;28;20103;-70
2022/04/23 08:45:39;;;;;;;2.90;1.40;;;;;;;14.04;51.96;93177.66;4988059;28;20068;-70
2022/04/23 08:48:09;;;;;;;2.72;1.35;;;;;;;13.78;51.74;93172.16;4983288;28;20743;-71
2022/04/23 08:50:38;;;;;;;3.40;1.30;;;;;;;13.83;51.65;93186.00;4994187;28;20088;-71
2022/04/23 08:56:50;;;;;;;3.28;1.17;;;;;;;14.00;51.46;93190.19;4982203;28;21435;-72
2022/04/23 08:59:17;;;;;;;1.33;0.90;;;;;;;13.83;51.59;93179.91;4983087;28;20481;-70
2022/04/23 09:01:44;;;;;;;0.90;0.85;;;;;;;13.92;51.10;93177.81;4983765;28;20461;-70
2022/04/23 09:04:11;;;;;;;2.63;1.20;;;;;;;13.98;51.02;93192.44;4986431;28;20112;-70
2022/04/23 09:06:44;;;;;;;1.92;1.13;;;;;;;13.99;50.80;93189.41;4984659;28;20108;-73
2022/04/23 09:09:11;;;;;;;1.67;1.25;;;;;;;14.00;50.04;93190.19;4987845;28;20497;-70
2022/04/23 09:11:39;;;;;;;3.10;1.05;;;;;;;14.15;49.93;93181.34;4991216;28;20136;-71
2022/04/23 09:14:06;;;;;;;3.60;1.30;;;;;;;14.04;50.40;93165.06;4979592;28;20623;-73
2022/04/23 09:25:41;;;;;;;1.35;0.90;;;;;;;14.53;49.69;93191.28;4994079;28;20111;-70
2022/04/23 09:28:22;;;;;;;4.25;1.30;;;;;;;14.48;48.81;93186.22;4981264;28;20038;-70
2022/04/23 09:30:55;;;;;;;2.67;1.10;;;;;;;14.53;49.22;93168.03;4998510;28;20026;-72
2022/04/23 09:33:41;;;;;;;3.47;1.75;;;;;;;14.54;48.71;93156.19;5005275;28;20157;-70
2022/04/23 09:36:06;;;;;;;2.22;1.00;;;;;;;14.57;48.94;93166.19;4979678;28;20052;-72
2022/04/23 09:38:32;;;;;;;1.55;1.00;;;;;;;14.56;49.87;93153.97;4982744;28;20448;-72
2022/04/23 09:40:59;;;;;;;4.75;1.13;;;;;;;14.62;50.36;93161.69;4989879;28;20592;-69
2022/04/23 09:43:37;;;;;;;2.45;1.67;;;;;;;14.63;51.05;93157.88;5001545;28;20042;-71
2022/04/23 09:46:08;;;;;;;6.13;3.13;;;;;;;14.76;50.68;93145.91;4988843;28;20640;-71
2022/04/23 09:48:35;;;;;;;1.52;1.27;;;;;;;14.35;51.48;93152.72;4991328;28;20103;-70
2022/04/23 09:51:05;;;;;;;1.52;1.00;;;;;;;14.62;51.49;93137.63;4990784;28;20039;-71
2022/04/23 09:53:31;;;;;;;1.20;1.10;;;;;;;14.85;49.91;93138.41;4987274;28;20556;-71
2022/04/23 09:56:00;;;;;;;2.13;1.45;;;;;;;14.79;49.76;93143.28;4992615;28;20042;-71
2022/04/23 09:58:29;;;;;;;1.40;1.20;;;;;;;14.10;51.51;93126.25;4983022;28;20152;-70
2022/04/23 10:01:30;;;;;;;1.67;1.00;;;;;;;14.62;50.71;93141.03;4983529;28;20091;-71
2022/04/23 10:07:39;;;;;;;3.28;1.35;;;;;;;14.53;50.39;93138.59;4954923;28;20053;-73
2022/04/23 10:10:08;;;;;;;1.33;1.05;;;;;;;14.64;51.09;93138.03;4960020;28;20456;-72
2022/04/23 10:12:35;;;;;;;3.28;1.52;;;;;;;13.91;52.04;93144.16;4985843;28;20026;-70
2022/04/23 10:15:01;;;;;;;5.60;1.88;;;;;;;13.83;52.83;93111.19;4988025;28;20612;-71
2022/04/23 10:17:28;;;;;;;3.03;1.33;;;;;;;14.01;53.17;93135.59;4984908;28;20508;-73
2022/04/23 10:19:54;;;;;;;4.80;1.58;;;;;;;14.00;52.58;93123.34;4987290;28;20057;-71
2022/04/23 10:22:31;;;;;;;2.25;1.60;;;;;;;14.50;51.63;93131.25;4986968;28;20143;-71
2022/04/23 10:25:24;;;;;;;8.15;2.75;;;;;;;14.71;51.69;93122.88;5005364;28;20172;-70
2022/04/23 10:27:53;;;;;;;2.40;1.58;;;;;;;14.36;51.71;93109.59;4994252;28;20032;-71
2022/04/23 10:30:18;;;;;;;1.58;1.20;;;;;;;14.32;52.18;93127.47;4982128;28;20536;-71
2022/04/23 10:32:45;;;;;;;4.25;1.63;;;;;;;14.26;50.71;93112.03;4989714;28;20048;-71
2022/04/23 10:35:19;;;;;;;4.65;1.50;;;;;;;14.30;51.00;93129.72;4974848;28;20037;-71
2022/04/23 10:37:48;;;;;;;2.83;1.27;;;;;;;14.42;51.34;93137.56;4986507;28;20125;-71
2022/04/23 10:40:17;;;;;;;6.38;1.63;;;;;;;14.50;50.34;93128.56;4987195;28;20032;-71
2022/04/23 10:43:04;;;;;;;5.57;1.95;;;;;;;14.67;50.64;93126.63;4968529;28;20405;-71
2022/04/23 10:45:34;;;;;;;7.75;2.90;;;;;;;14.63;49.89;93125.75;4971628;28;20802;-72
2022/04/23 10:48:26;;;;;;;6.47;2.03;;;;;;;15.20;48.71;93133.69;4963226;28;21295;-71
2022/04/23 10:51:15;;;;;;;2.58;1.50;;;;;;;15.48;48.26;93127.25;4965175;28;20243;-69
2022/04/23 10:53:46;;;;;;;3.80;1.58;;;;;;;15.26;47.21;93126.09;4965000;28;20039;-69
2022/04/23 10:56:17;;;;;;;3.25;1.70;;;;;;;15.43;47.54;93131.75;4969312;28;20370;-69
2022/04/23 10:58:43;;;;;;;4.05;1.20;;;;;;;15.63;46.28;93126.31;4965710;28;20041;-71
2022/04/23 11:01:29;;;;;;;3.65;1.50;;;;;;;15.08;47.41;93130.38;4972638;28;20153;-71
2022/04/23 11:03:55;;;;;;;3.13;1.60;;;;;;;15.35;47.59;93135.44;4972928;28;20037;-71
2022/04/23 11:12:22;;;;;;;2.80;1.70;;;;;;;15.87;45.37;93133.94;4967423;28;20550;-70
2022/04/23 11:14:53;;;;;;;1.92;1.30;;;;;;;15.78;45.52;93133.44;4970328;28;20045;-70
2022/04/23 11:17:30;;;;;;;2.15;1.65;;;;;;;15.68;46.50;93132.16;4981855;28;20490;-71
2022/04/23 11:19:56;;;;;;;4.80;1.50;;;;;;;15.83;46.24;93133.91;4969415;28;20038;-70
2022/04/23 11:22:22;;;;;;;7.18;2.20;;;;;;;16.20;45.92;93134.00;4968840;28;20030;-73
2022/04/23 11:24:49;;;;;;;4.22;1.85;;;;;;;16.45;45.83;93130.88;4964914;28;20562;-71
2022/04/23 11:27:29;;;;;;;2.22;1.50;;;;;;;16.67;44.66;93122.69;4958658;28;20084;-71
2022/04/23 11:29:54;;;;;;;6.45;1.48;;;;;;;16.78;44.36;93117.44;4968242;28;20449;-71
2022/04/23 11:32:28;;;;;;;3.60;1.35;;;;;;;16.96;43.99;93128.38;4962538;28;20113;-72
2022/04/23 11:35:04;;;;;;;3.25;1.38;;;;;;;17.04;43.07;93106.56;4961926;28;20031;-70
2022/04/23 11:37:33;;;;;;;4.40;1.50;;;;;;;17.24;44.14;93120.59;4959976;28;20588;-71
2022/04/23 11:40:29;;;;;;;5.60;1.90;;;;;;;17.34;44.59;93127.19;4957142;28;20248;-69
2022/04/23 11:42:54;;;;;;;5.63;1.88;;;;;;;17.07;43.28;93135.38;4966500;28;20298;-71
2022/04/23 11:45:21;;;;;;;2.35;1.30;;;;;;;17.15;43.32;93138.94;4973326;28;20042;-71
2022/04/23 11:47:46;;;;;;;2.85;1.55;;;;;;;17.11;43.12;93136.19;4969510;28;20038;-71
2022/04/23 11:50:12;;;;;;;4.78;2.25;;;;;;;16.96;43.61;93134.53;4969498;28;20585;-70
2022/04/23 11:52:39;;;;;;;4.72;1.10;;;;;;;17.20;43.00;93137.84;4972253;28;20109;-71
2022/04/23 11:55:05;;;;;;;7.43;1.23;;;;;;;17.16;43.30;93138.56;4965127;28;21139;-73
2022/04/23 11:57:31;;;;;;;3.78;1.33;;;;;;;17.09;42.94;93137.69;4968467;28;20023;-70
2022/04/23 12:00:06;;;;;;;4.30;1.20;;;;;;;17.12;43.17;93143.09;4972322;28;20037;-70
2022/04/23 12:02:32;;;;;;;4.03;1.00;;;;;;;16.95;45.06;93154.47;4959930;28;20038;-73
2022/04/23 12:05:02;;;;;;;2.08;0.82;;;;;;;16.36;47.32;93133.06;4962742;28;20057;-71
2022/04/23 12:07:31;;;;;;;2.05;0.93;;;;;;;16.39;47.36;93143.06;4969378;28;20438;-71
2022/04/23 12:09:59;;;;;;;2.35;1.27;;;;;;;16.26;47.64;93145.19;4965501;28;20221;-72